TRA31AP EGLL-EHAM
Flight info
| Callsign | TRA31AP |
|---|---|
| Flight time | N/A |
| Altitude | 27000 |
| Route | BPK Q295 BRAIN M197 REDFA |
| Aircraft | A320/M-SDE3FGHIRWY/LB1 |
Departure
| Time | N/A |
|---|---|
| Airport | London Heathrow Airport (EGLL) |
Arrival
| Time | 2026-05-07 16:18 |
|---|---|
| Airport | Amsterdam Airport Schiphol (EHAM) |
| Time | Latitude | Longitude | Altitude | Speed | Heading |
|---|---|---|---|---|---|
| 2026-05-07 15:52 | 51.81566 | 0.67072 | 21649 ft | 405 kts | 77° |
| 2026-05-07 15:52 | 51.82207 | 0.71515 | 22198 ft | 408 kts | 77° |
| 2026-05-07 15:53 | 51.82846 | 0.76001 | 22720 ft | 411 kts | 78° |
| 2026-05-07 15:53 | 51.83486 | 0.80520 | 23222 ft | 414 kts | 77° |
| 2026-05-07 15:53 | 51.84178 | 0.85055 | 23707 ft | 417 kts | 75° |
| 2026-05-07 15:53 | 51.84970 | 0.89596 | 24121 ft | 420 kts | 74° |
| 2026-05-07 15:54 | 51.85823 | 0.94125 | 24533 ft | 423 kts | 73° |
| 2026-05-07 15:54 | 51.86702 | 0.98686 | 24962 ft | 425 kts | 73° |
| 2026-05-07 15:54 | 51.87578 | 1.03270 | 25393 ft | 427 kts | 73° |
| 2026-05-07 15:54 | 51.88431 | 1.07822 | 25799 ft | 430 kts | 73° |
| 2026-05-07 15:55 | 51.89282 | 1.12476 | 26197 ft | 432 kts | 74° |
| 2026-05-07 15:55 | 51.90124 | 1.17154 | 26583 ft | 434 kts | 74° |
| 2026-05-07 15:55 | 51.90964 | 1.21856 | 26956 ft | 436 kts | 74° |
| 2026-05-07 15:55 | 51.91806 | 1.26586 | 27066 ft | 434 kts | 74° |
| 2026-05-07 15:56 | 51.92638 | 1.31259 | 27082 ft | 429 kts | 74° |
| 2026-05-07 15:56 | 51.93460 | 1.35890 | 27081 ft | 427 kts | 75° |
| 2026-05-07 15:56 | 51.94278 | 1.40510 | 27087 ft | 427 kts | 75° |
| 2026-05-07 15:56 | 51.95095 | 1.45136 | 27087 ft | 426 kts | 75° |
| 2026-05-07 15:57 | 51.95908 | 1.49755 | 27086 ft | 426 kts | 75° |
| 2026-05-07 15:57 | 51.96717 | 1.54372 | 27087 ft | 425 kts | 75° |
| 2026-05-07 15:57 | 51.97524 | 1.58991 | 27090 ft | 425 kts | 75° |
| 2026-05-07 15:57 | 51.98330 | 1.63605 | 27089 ft | 425 kts | 75° |
| 2026-05-07 15:58 | 51.99138 | 1.68223 | 27047 ft | 423 kts | 75° |
| 2026-05-07 15:58 | 51.99909 | 1.72784 | 26800 ft | 417 kts | 76° |
| 2026-05-07 15:58 | 52.00639 | 1.77361 | 26542 ft | 429 kts | 76° |
| 2026-05-07 15:58 | 52.01364 | 1.82084 | 26290 ft | 432 kts | 77° |
| 2026-05-07 15:59 | 52.02079 | 1.86825 | 26061 ft | 432 kts | 77° |
| 2026-05-07 15:59 | 52.02789 | 1.91555 | 25834 ft | 431 kts | 77° |
| 2026-05-07 15:59 | 52.03507 | 1.96309 | 25610 ft | 441 kts | 77° |
| 2026-05-07 15:59 | 52.04259 | 2.01247 | 25391 ft | 457 kts | 76° |
| 2026-05-07 16:00 | 52.05035 | 2.06309 | 25143 ft | 462 kts | 76° |
| 2026-05-07 16:00 | 52.05814 | 2.11368 | 24899 ft | 462 kts | 76° |
| 2026-05-07 16:00 | 52.06591 | 2.16430 | 24660 ft | 461 kts | 76° |
| 2026-05-07 16:00 | 52.07364 | 2.21490 | 24415 ft | 460 kts | 76° |
| 2026-05-07 16:01 | 52.08131 | 2.26532 | 24177 ft | 459 kts | 76° |
| 2026-05-07 16:01 | 52.08893 | 2.31583 | 23943 ft | 458 kts | 76° |
| 2026-05-07 16:01 | 52.09647 | 2.36601 | 23709 ft | 457 kts | 77° |
| 2026-05-07 16:01 | 52.10398 | 2.41607 | 23437 ft | 455 kts | 77° |
| 2026-05-07 16:02 | 52.11126 | 2.46612 | 23152 ft | 453 kts | 79° |
| 2026-05-07 16:02 | 52.11492 | 2.51635 | 22720 ft | 451 kts | 85° |
| 2026-05-07 16:02 | 52.11776 | 2.56699 | 22243 ft | 448 kts | 85° |
| 2026-05-07 16:02 | 52.12047 | 2.61738 | 21795 ft | 445 kts | 85° |
| 2026-05-07 16:03 | 52.12304 | 2.66727 | 21340 ft | 442 kts | 85° |
| 2026-05-07 16:03 | 52.12555 | 2.71691 | 20880 ft | 438 kts | 85° |
| 2026-05-07 16:03 | 52.12806 | 2.76620 | 20447 ft | 436 kts | 85° |
| 2026-05-07 16:03 | 52.13058 | 2.81526 | 20023 ft | 433 kts | 85° |
| 2026-05-07 16:04 | 52.13308 | 2.86387 | 19595 ft | 430 kts | 85° |
| 2026-05-07 16:04 | 52.13555 | 2.91231 | 19179 ft | 428 kts | 85° |
| 2026-05-07 16:04 | 52.13797 | 2.96037 | 18760 ft | 425 kts | 85° |
| 2026-05-07 16:04 | 52.14038 | 3.00830 | 18359 ft | 424 kts | 85° |
| 2026-05-07 16:05 | 52.14277 | 3.05593 | 17900 ft | 420 kts | 85° |
| 2026-05-07 16:05 | 52.14508 | 3.10258 | 17442 ft | 418 kts | 86° |
| 2026-05-07 16:05 | 52.14737 | 3.14954 | 16994 ft | 415 kts | 86° |
| 2026-05-07 16:05 | 52.14964 | 3.19611 | 16549 ft | 411 kts | 86° |
| 2026-05-07 16:06 | 52.15187 | 3.24243 | 16108 ft | 409 kts | 86° |
| 2026-05-07 16:06 | 52.15406 | 3.28838 | 15682 ft | 405 kts | 86° |
| 2026-05-07 16:06 | 52.15624 | 3.33399 | 15234 ft | 403 kts | 86° |
| 2026-05-07 16:06 | 52.15839 | 3.37946 | 14827 ft | 400 kts | 86° |
| 2026-05-07 16:07 | 52.16048 | 3.42445 | 14411 ft | 397 kts | 86° |
| 2026-05-07 16:07 | 52.16255 | 3.46913 | 14004 ft | 395 kts | 86° |
| 2026-05-07 16:07 | 52.16459 | 3.51357 | 13557 ft | 392 kts | 86° |
| 2026-05-07 16:07 | 52.16659 | 3.55769 | 13092 ft | 389 kts | 86° |
| 2026-05-07 16:08 | 52.16855 | 3.60166 | 12648 ft | 387 kts | 86° |
| 2026-05-07 16:08 | 52.17048 | 3.64518 | 12213 ft | 384 kts | 86° |
| 2026-05-07 16:08 | 52.17240 | 3.68844 | 11774 ft | 382 kts | 86° |
| 2026-05-07 16:08 | 52.17430 | 3.73153 | 11341 ft | 380 kts | 86° |
| 2026-05-07 16:09 | 52.17614 | 3.77421 | 10915 ft | 377 kts | 86° |
| 2026-05-07 16:09 | 52.17795 | 3.81671 | 10496 ft | 375 kts | 86° |
| 2026-05-07 16:09 | 52.17976 | 3.85901 | 10082 ft | 373 kts | 86° |
| 2026-05-07 16:09 | 52.18156 | 3.90098 | 9635 ft | 370 kts | 86° |
| 2026-05-07 16:10 | 52.18335 | 3.94263 | 9174 ft | 368 kts | 87° |
| 2026-05-07 16:10 | 52.18509 | 3.98404 | 8724 ft | 364 kts | 87° |
| 2026-05-07 16:10 | 52.18681 | 4.02497 | 8280 ft | 360 kts | 87° |
| 2026-05-07 16:10 | 52.18848 | 4.06551 | 7847 ft | 357 kts | 88° |
| 2026-05-07 16:11 | 52.19009 | 4.10571 | 7412 ft | 354 kts | 87° |
| 2026-05-07 16:11 | 52.19169 | 4.14526 | 6965 ft | 340 kts | 88° |
| 2026-05-07 16:11 | 52.19321 | 4.18234 | 6676 ft | 314 kts | 88° |
| 2026-05-07 16:11 | 52.19459 | 4.21649 | 6500 ft | 290 kts | 88° |
| 2026-05-07 16:12 | 52.19582 | 4.24814 | 6315 ft | 270 kts | 88° |
| 2026-05-07 16:12 | 52.19698 | 4.27832 | 6132 ft | 265 kts | 88° |
| 2026-05-07 16:12 | 52.19812 | 4.30792 | 5951 ft | 264 kts | 88° |
| 2026-05-07 16:12 | 52.19926 | 4.33769 | 5753 ft | 261 kts | 88° |
| 2026-05-07 16:13 | 52.20038 | 4.36714 | 5278 ft | 258 kts | 88° |
| 2026-05-07 16:13 | 52.20146 | 4.39596 | 4809 ft | 252 kts | 88° |
| 2026-05-07 16:13 | 52.20250 | 4.42425 | 4345 ft | 247 kts | 86° |
| 2026-05-07 16:13 | 52.20351 | 4.45196 | 3879 ft | 242 kts | 86° |
| 2026-05-07 16:14 | 52.20451 | 4.47882 | 3572 ft | 231 kts | 86° |
| 2026-05-07 16:14 | 52.20547 | 4.50425 | 3324 ft | 217 kts | 85° |
| 2026-05-07 16:14 | 52.20879 | 4.52791 | 3010 ft | 213 kts | 65° |
| 2026-05-07 16:14 | 52.21609 | 4.54825 | 2723 ft | 203 kts | 58° |
| 2026-05-07 16:15 | 52.22347 | 4.56723 | 2460 ft | 194 kts | 58° |
| 2026-05-07 16:15 | 52.23061 | 4.58566 | 2210 ft | 191 kts | 58° |
| 2026-05-07 16:15 | 52.23764 | 4.60383 | 1931 ft | 187 kts | 57° |
| 2026-05-07 16:15 | 52.24449 | 4.62155 | 1667 ft | 180 kts | 57° |
| 2026-05-07 16:16 | 52.25094 | 4.63824 | 1425 ft | 167 kts | 57° |
| 2026-05-07 16:16 | 52.25672 | 4.65324 | 1210 ft | 147 kts | 56° |
| 2026-05-07 16:16 | 52.26195 | 4.66678 | 1016 ft | 137 kts | 55° |
| 2026-05-07 16:16 | 52.26701 | 4.67988 | 834 ft | 135 kts | 54° |
| 2026-05-07 16:17 | 52.27196 | 4.69273 | 670 ft | 133 kts | 55° |
| 2026-05-07 16:17 | 52.27685 | 4.70542 | 494 ft | 131 kts | 56° |
| 2026-05-07 16:17 | 52.28171 | 4.71799 | 371 ft | 132 kts | 56° |
| 2026-05-07 16:17 | 52.28666 | 4.73071 | 188 ft | 131 kts | 57° |
| 2026-05-07 16:18 | 52.29142 | 4.74329 | 45 ft | 129 kts | 57° |
| 2026-05-07 16:18 | 52.29616 | 4.75549 | -2 ft | 116 kts | 59° |
| 2026-05-07 16:18 | 52.29960 | 4.76447 | -4 ft | 74 kts | 58° |
| 2026-05-07 16:18 | 52.30167 | 4.76987 | -4 ft | 45 kts | 57° |
| 2026-05-07 16:19 | 52.30295 | 4.77279 | -5 ft | 23 kts | 41° |
| 2026-05-07 16:19 | 52.30371 | 4.77361 | -4 ft | 12 kts | 28° |
| 2026-05-07 16:19 | 52.30445 | 4.77414 | -3 ft | 11 kts | 13° |
| 2026-05-07 16:19 | 52.30511 | 4.77387 | -3 ft | 10 kts | 2° |
| 2026-05-07 16:20 | 52.30565 | 4.77480 | -2 ft | 13 kts | 56° |
| 2026-05-07 16:20 | 52.30641 | 4.77580 | -2 ft | 16 kts | 17° |
| 2026-05-07 16:20 | 52.30756 | 4.77597 | -2 ft | 14 kts | 3° |
| 2026-05-07 16:20 | 52.30812 | 4.77601 | -2 ft | 8 kts | 356° |
| 2026-05-07 16:21 | 52.30834 | 4.77513 | -2 ft | 10 kts | 274° |
| 2026-05-07 16:21 | 52.30837 | 4.77425 | -2 ft | 7 kts | 273° |
| 2026-05-07 16:21 | 52.30840 | 4.77340 | -2 ft | 3 kts | 275° |
| 2026-05-07 16:21 | 52.30855 | 4.77302 | -2 ft | 5 kts | 332° |
| 2026-05-07 16:22 | 52.30878 | 4.77301 | -2 ft | 3 kts | 3° |
| 2026-05-07 16:22 | 52.30891 | 4.77302 | -2 ft | 2 kts | 3° |
| 2026-05-07 16:22 | 52.30899 | 4.77303 | -2 ft | 1 kts | 3° |
| 2026-05-07 16:22 | 52.30901 | 4.77303 | -2 ft | 0 kts | 3° |